createdAt,value
2018-11-21T00:01:34.166Z,23.83
2018-11-21T00:03:37.843Z,23.67
2018-11-21T00:05:41.604Z,24.77
2018-11-21T00:07:46.214Z,22.33
2018-11-21T00:09:50.073Z,25.90
2018-11-21T00:11:54.136Z,23.97
2018-11-21T00:13:57.743Z,25.13
2018-11-21T00:16:01.069Z,25.43
2018-11-21T00:18:04.336Z,26.10
2018-11-21T00:20:09.248Z,23.73
2018-11-21T00:22:12.577Z,22.67
2018-11-21T00:24:15.844Z,27.83
2018-11-21T00:26:19.084Z,24.77
2018-11-21T00:28:23.325Z,24.73
2018-11-21T00:30:26.737Z,26.80
2018-11-21T00:32:30.185Z,27.17
2018-11-21T00:34:33.564Z,23.73
2018-11-21T00:36:36.819Z,25.97
2018-11-21T00:38:40.103Z,26.13
2018-11-21T00:40:43.379Z,23.93
2018-11-21T00:42:47.151Z,26.53
2018-11-21T00:44:49.907Z,22.17
2018-11-21T00:46:54.084Z,24.50
2018-11-21T00:48:57.407Z,23.83
2018-11-21T00:51:00.679Z,23.17
2018-11-21T00:53:04.059Z,24.47
2018-11-21T00:55:07.760Z,26.03
2018-11-21T00:57:11.003Z,25.13
2018-11-21T00:59:14.283Z,23.13
2018-11-21T01:01:17.553Z,21.53
2018-11-21T01:03:20.823Z,21.83
2018-11-21T01:05:24.776Z,21.43
2018-11-21T01:07:28.696Z,23.53
2018-11-21T01:09:33.055Z,22.47
2018-11-21T01:11:36.679Z,23.27
2018-11-21T01:13:39.957Z,20.27
2018-11-21T01:15:43.545Z,23.33
2018-11-21T01:17:47.183Z,23.97
2018-11-21T01:19:50.444Z,21.07
2018-11-21T01:21:54.262Z,22.27
2018-11-21T01:23:57.827Z,23.17
2018-11-21T01:26:01.097Z,23.43
2018-11-21T01:28:04.486Z,21.97
2018-11-21T01:30:08.132Z,23.13
2018-11-21T01:32:11.443Z,21.13
2018-11-21T01:34:14.762Z,23.40
2018-11-21T01:36:18.144Z,21.37
2018-11-21T01:38:21.433Z,25.67
2018-11-21T01:40:25.262Z,18.37
2018-11-21T01:42:28.676Z,22.67
2018-11-21T01:44:31.930Z,23.87
2018-11-21T01:46:35.579Z,23.37
2018-11-21T01:48:39.223Z,21.70
2018-11-21T01:50:43.037Z,21.70
2018-11-21T01:52:46.305Z,20.90
2018-11-21T01:54:50.939Z,25.07
2018-11-21T01:56:54.988Z,21.57
2018-11-21T01:58:58.420Z,23.23
2018-11-21T02:01:01.721Z,26.70
2018-11-21T02:03:06.311Z,23.07
2018-11-21T02:05:09.711Z,24.50
2018-11-21T02:07:13.087Z,21.07
2018-11-21T02:09:17.012Z,19.43
2018-11-21T02:11:20.331Z,28.03
2018-11-21T02:13:24.866Z,21.00
2018-11-21T02:15:28.125Z,26.03
2018-11-21T02:17:31.413Z,25.03
2018-11-21T02:19:35.426Z,27.43
2018-11-21T02:21:38.799Z,20.77
2018-11-21T02:23:42.096Z,21.27
2018-11-21T02:25:45.449Z,24.87
2018-11-21T02:27:48.715Z,22.97
2018-11-21T02:29:51.981Z,24.43
2018-11-21T02:31:55.251Z,24.63
2018-11-21T02:33:58.538Z,23.63
2018-11-21T02:36:01.785Z,21.33
2018-11-21T02:38:06.134Z,23.43
2018-11-21T02:40:09.589Z,23.43
2018-11-21T02:42:12.861Z,21.77
2018-11-21T02:44:16.249Z,22.03
2018-11-21T02:46:19.514Z,24.13
2018-11-21T02:48:22.767Z,27.03
2018-11-21T02:50:27.540Z,27.10
2018-11-21T02:52:30.807Z,25.73
2018-11-21T02:54:34.404Z,22.33
2018-11-21T02:57:14.202Z,24.27
2018-11-21T02:59:17.477Z,30.07
2018-11-21T03:01:20.860Z,23.33
2018-11-21T03:03:26.771Z,25.70
2018-11-21T03:05:30.409Z,25.20
2018-11-21T03:07:33.715Z,27.50
2018-11-21T03:09:37.933Z,25.27
2018-11-21T03:11:41.487Z,26.37
2018-11-21T03:13:44.855Z,26.00
2018-11-21T03:15:48.143Z,25.23
2018-11-21T03:17:51.399Z,22.87
2018-11-21T03:19:54.695Z,28.00
2018-11-21T03:21:57.979Z,28.70
2018-11-21T03:24:01.215Z,26.10
2018-11-21T03:26:04.810Z,23.80
2018-11-21T03:28:08.674Z,31.33
2018-11-21T03:30:13.044Z,28.70
2018-11-21T03:32:16.478Z,27.37
2018-11-21T03:34:19.895Z,25.53
2018-11-21T03:36:23.136Z,28.50
2018-11-21T03:38:26.399Z,27.93
2018-11-21T03:40:29.711Z,25.23
2018-11-21T03:42:32.975Z,24.27
2018-11-21T03:44:37.114Z,28.33
2018-11-21T03:46:41.032Z,27.83
2018-11-21T03:48:44.708Z,25.03
2018-11-21T03:50:47.978Z,27.50
2018-11-21T03:52:52.180Z,30.43
2018-11-21T03:54:55.432Z,31.53
2018-11-21T03:56:58.727Z,27.03
2018-11-21T03:59:02.325Z,27.10
2018-11-21T04:01:06.573Z,25.53
2018-11-21T04:03:10.091Z,25.83
2018-11-21T04:05:13.463Z,29.63
2018-11-21T04:07:16.779Z,31.83
2018-11-21T04:09:21.983Z,25.20
2018-11-21T04:11:25.500Z,29.30
2018-11-21T04:13:28.778Z,25.23
2018-11-21T04:15:32.051Z,26.73
2018-11-21T04:17:36.194Z,21.93
2018-11-21T04:19:39.615Z,21.77
2018-11-21T04:21:42.963Z,26.33
2018-11-21T04:23:47.310Z,28.20
2018-11-21T04:25:50.579Z,25.40
2018-11-21T04:27:53.859Z,27.13
2018-11-21T04:29:57.136Z,28.07
2018-11-21T04:32:00.392Z,27.07
2018-11-21T04:34:03.664Z,24.83
2018-11-21T04:36:07.758Z,30.20
2018-11-21T04:38:11.210Z,24.27
2018-11-21T04:40:14.455Z,25.20
2018-11-21T04:42:18.471Z,24.27
2018-11-21T04:44:21.743Z,26.97
2018-11-21T04:46:24.998Z,22.90
2018-11-21T04:48:28.291Z,24.50
2018-11-21T04:50:31.540Z,26.77
2018-11-21T04:52:34.893Z,29.10
2018-11-21T04:54:38.744Z,25.07
2018-11-21T04:56:42.083Z,22.90
2018-11-21T04:58:45.381Z,28.77
2018-11-21T05:00:49.090Z,25.20
2018-11-21T05:02:52.368Z,24.93
2018-11-21T05:04:55.614Z,25.50
2018-11-21T05:06:59.320Z,24.80
2018-11-21T05:09:02.586Z,25.93
2018-11-21T05:11:08.587Z,31.13
2018-11-21T05:13:12.067Z,24.87
2018-11-21T05:15:15.412Z,29.47
2018-11-21T05:17:18.708Z,26.60
2018-11-21T05:19:23.356Z,23.60
2018-11-21T05:21:26.657Z,28.53
2018-11-21T05:23:30.051Z,28.67
2018-11-21T05:25:33.336Z,27.47
2018-11-21T05:27:38.090Z,28.37
2018-11-21T05:29:41.532Z,26.23
2018-11-21T05:31:44.794Z,28.77
2018-11-21T05:33:48.157Z,24.37
2018-11-21T05:35:51.437Z,28.87
2018-11-21T05:37:55.634Z,30.23
2018-11-21T05:39:58.906Z,27.83
2018-11-21T05:42:02.160Z,30.13
2018-11-21T05:44:05.690Z,28.80
2018-11-21T05:46:09.410Z,32.50
2018-11-21T05:48:12.871Z,30.13
2018-11-21T05:50:16.592Z,23.07
2018-11-21T05:52:19.906Z,30.77
2018-11-21T05:54:23.180Z,30.43
2018-11-21T05:56:27.002Z,30.53
2018-11-21T05:58:30.265Z,31.20
2018-11-21T06:00:33.585Z,30.77
2018-11-21T06:02:37.306Z,30.03
2018-11-21T06:04:40.847Z,59.77
2018-11-21T06:06:44.380Z,40.93
2018-11-21T06:08:47.760Z,33.27
2018-11-21T06:10:52.364Z,29.07
2018-11-21T06:12:55.679Z,29.57
2018-11-21T06:14:59.899Z,33.07
2018-11-21T06:17:03.164Z,30.60
2018-11-21T06:19:07.221Z,32.17
2018-11-21T06:21:10.840Z,31.93
2018-11-21T06:23:13.985Z,33.77
2018-11-21T06:25:17.310Z,31.03
2018-11-21T06:27:20.392Z,30.07
2018-11-21T06:29:23.748Z,30.03
2018-11-21T06:31:26.961Z,27.97
2018-11-21T06:33:31.677Z,34.33
2018-11-21T06:35:35.059Z,34.87
2018-11-21T06:37:48.671Z,32.37
2018-11-21T06:39:51.910Z,32.13
2018-11-21T06:41:55.230Z,31.20
2018-11-21T06:43:58.445Z,33.67
2018-11-21T06:46:01.776Z,26.47
2018-11-21T06:48:05.093Z,28.60
2018-11-21T06:50:09.195Z,36.07
2018-11-21T06:52:13.551Z,28.60
2018-11-21T06:54:17.010Z,28.73
2018-11-21T06:56:20.259Z,30.90
2018-11-21T06:58:23.538Z,26.27
2018-11-21T07:00:26.807Z,28.50
2018-11-21T07:02:30.062Z,30.13
2018-11-21T07:04:33.336Z,32.93
2018-11-21T07:06:36.959Z,30.40
2018-11-21T07:08:40.579Z,30.03
2018-11-21T07:10:44.440Z,31.10
2018-11-21T07:12:50.031Z,28.10
2018-11-21T07:14:53.385Z,29.47
2018-11-21T07:16:56.976Z,27.53
2018-11-21T07:19:00.228Z,30.20
2018-11-21T07:21:03.480Z,27.20
2018-11-21T07:23:07.811Z,32.40
2018-11-21T07:25:21.559Z,31.60
2018-11-21T07:27:24.950Z,31.60
2018-11-21T07:29:34.475Z,31.50
2018-11-21T07:31:32.457Z,29.13
2018-11-21T07:33:36.260Z,27.37
2018-11-21T07:35:40.272Z,28.43
2018-11-21T07:37:43.652Z,26.27
2018-11-21T07:39:46.918Z,28.03
2018-11-21T07:41:50.429Z,24.90
2018-11-21T07:43:53.686Z,27.03
2018-11-21T07:45:56.961Z,29.57
2018-11-21T07:48:01.494Z,28.37
2018-11-21T07:50:07.320Z,27.80
2018-11-21T07:52:11.263Z,26.17
2018-11-21T07:54:14.890Z,31.90
2018-11-21T07:57:01.516Z,23.73
2018-11-21T07:59:04.800Z,22.40
2018-11-21T08:01:41.488Z,23.13
2018-11-21T08:03:47.167Z,26.83
2018-11-21T08:05:52.885Z,26.87
2018-11-21T08:08:21.376Z,26.07
2018-11-21T08:10:48.111Z,26.67
2018-11-21T08:13:18.870Z,24.90
2018-11-21T08:15:40.085Z,27.17
2018-11-21T08:18:01.598Z,26.00
2018-11-21T08:20:27.759Z,23.67
2018-11-21T08:23:00.726Z,27.10
2018-11-21T08:25:15.754Z,25.17
2018-11-21T08:27:40.885Z,23.40
2018-11-21T08:29:44.252Z,24.40
2018-11-21T08:31:47.534Z,32.23
2018-11-21T08:33:50.802Z,31.23
2018-11-21T08:35:54.373Z,28.30
2018-11-21T08:37:57.642Z,26.53
2018-11-21T08:40:00.895Z,22.17
2018-11-21T08:42:04.674Z,25.63
2018-11-21T08:44:09.223Z,23.63
2018-11-21T08:46:12.875Z,25.73
2018-11-21T08:48:17.176Z,26.43
2018-11-21T08:50:20.673Z,24.53
2018-11-21T08:52:23.962Z,22.93
2018-11-21T08:54:27.477Z,24.90
2018-11-21T08:56:30.762Z,23.80
2018-11-21T08:58:33.977Z,25.07
2018-11-21T09:00:38.551Z,24.43
2018-11-21T09:02:42.439Z,24.73
2018-11-21T09:04:46.081Z,23.57
2018-11-21T09:06:49.547Z,23.27
2018-11-21T09:08:53.139Z,22.40
2018-11-21T09:10:56.394Z,22.17
2018-11-21T09:12:59.674Z,24.63
2018-11-21T09:15:05.319Z,26.73
2018-11-21T09:17:08.963Z,21.50
2018-11-21T09:19:12.883Z,21.03
2018-11-21T09:21:16.454Z,25.30
2018-11-21T09:23:19.918Z,24.57
2018-11-21T09:25:23.543Z,24.60
2018-11-21T09:27:26.791Z,27.83
2018-11-21T09:29:30.043Z,26.17
2018-11-21T09:31:33.583Z,23.33
2018-11-21T09:33:36.925Z,31.97
2018-11-21T09:35:41.202Z,24.87
2018-11-21T09:37:45.547Z,32.43
2018-11-21T09:39:48.878Z,23.23
2018-11-21T09:41:52.145Z,32.03
2018-11-21T09:43:55.413Z,26.63
2018-11-21T09:45:58.701Z,25.30
2018-11-21T09:48:01.930Z,23.27
2018-11-21T09:50:08.699Z,28.00
2018-11-21T09:52:12.339Z,26.87
2018-11-21T09:54:15.924Z,27.60
2018-11-21T09:56:19.299Z,19.43
2018-11-21T09:58:22.568Z,22.73
2018-11-21T10:01:02.848Z,19.93
2018-11-21T10:03:17.084Z,20.93
2018-11-21T10:05:20.706Z,24.03
2018-11-21T10:07:23.975Z,22.87
2018-11-21T10:09:30.293Z,22.83
2018-11-21T10:11:34.450Z,21.77
2018-11-21T10:13:37.691Z,23.60
2018-11-21T10:15:42.886Z,19.63
2018-11-21T10:17:46.938Z,23.40
2018-11-21T10:19:50.350Z,21.93
2018-11-21T10:21:53.860Z,27.30
2018-11-21T10:23:57.258Z,22.23
2018-11-21T10:26:08.053Z,21.83
2018-11-21T10:28:12.157Z,19.57
2018-11-21T10:30:15.858Z,18.73
2018-11-21T10:32:19.109Z,24.87
2018-11-21T10:34:22.386Z,17.50
2018-11-21T10:36:25.663Z,20.63
2018-11-21T10:38:28.918Z,20.30
2018-11-21T10:40:32.248Z,20.83
2018-11-21T10:42:35.494Z,17.97
2018-11-21T10:44:38.839Z,21.37
2018-11-21T10:46:42.891Z,21.70
2018-11-21T10:48:46.370Z,19.83
2018-11-21T10:50:50.094Z,20.00
2018-11-21T10:52:53.729Z,17.07
2018-11-21T10:54:56.988Z,20.10
2018-11-21T10:56:59.969Z,20.67
2018-11-21T10:59:03.238Z,19.30
2018-11-21T11:01:44.129Z,19.70
2018-11-21T11:03:59.244Z,17.27
2018-11-21T11:06:35.334Z,20.20
2018-11-21T11:09:06.806Z,18.13
2018-11-21T11:11:44.249Z,19.73
2018-11-21T11:13:58.965Z,21.27
2018-11-21T11:16:24.743Z,17.53
2018-11-21T11:18:45.684Z,22.10
2018-11-21T11:21:07.067Z,19.30
2018-11-21T11:23:27.928Z,16.97
2018-11-21T11:25:50.054Z,21.43
2018-11-21T11:28:14.626Z,18.57
2018-11-21T11:30:39.411Z,18.50
2018-11-21T11:33:08.356Z,18.10
2018-11-21T11:35:31.063Z,18.83
2018-11-21T11:37:57.397Z,16.30
2018-11-21T11:40:19.834Z,16.53
2018-11-21T11:42:41.340Z,18.80
2018-11-21T11:45:02.829Z,19.97
2018-11-21T11:47:34.886Z,19.73
2018-11-21T11:50:00.321Z,16.53
2018-11-21T11:52:28.617Z,17.17
2018-11-21T11:54:38.167Z,17.87
2018-11-21T11:57:06.426Z,19.43
2018-11-21T11:59:37.999Z,19.33
2018-11-21T12:01:59.055Z,19.00
2018-11-21T12:04:24.229Z,18.17
2018-11-21T12:06:59.038Z,17.63
2018-11-21T12:09:24.368Z,18.50
2018-11-21T12:11:55.501Z,20.80
2018-11-21T12:14:16.437Z,15.67
2018-11-21T12:16:39.898Z,17.40
2018-11-21T12:19:09.878Z,17.60
2018-11-21T12:21:35.524Z,19.83
2018-11-21T12:24:04.193Z,16.97
2018-11-21T12:26:24.793Z,17.17
2018-11-21T12:28:53.219Z,19.37
2018-11-21T12:31:15.098Z,17.83
2018-11-21T12:33:36.197Z,14.57
2018-11-21T12:36:07.723Z,18.97
2018-11-21T12:38:30.445Z,17.53
2018-11-21T12:40:51.594Z,14.57
2018-11-21T12:43:14.023Z,21.87
2018-11-21T12:45:30.079Z,16.90
2018-11-21T12:47:43.425Z,19.47
2018-11-21T12:50:06.013Z,17.20
2018-11-21T12:52:26.263Z,15.97
2018-11-21T12:54:54.479Z,18.70
2018-11-21T12:57:16.901Z,15.73
2018-11-21T12:59:36.817Z,15.27
2018-11-21T13:01:58.174Z,19.70
2018-11-21T13:04:19.344Z,18.63
2018-11-21T13:06:42.092Z,17.80
2018-11-21T13:09:13.810Z,17.83
2018-11-21T13:11:35.546Z,20.03
2018-11-21T13:14:05.106Z,16.40
2018-11-21T13:16:31.042Z,18.30
2018-11-21T13:19:13.090Z,19.13
2018-11-21T13:21:42.268Z,18.07
2018-11-21T13:24:07.866Z,16.50
2018-11-21T13:26:32.907Z,13.63
2018-11-21T13:28:46.924Z,16.80
2018-11-21T13:31:15.035Z,19.03
2018-11-21T13:33:36.076Z,18.27
2018-11-21T13:35:49.533Z,15.60
2018-11-21T13:38:28.711Z,18.90
2018-11-21T13:41:03.665Z,19.53
2018-11-21T13:43:42.441Z,17.53
2018-11-21T13:46:23.302Z,16.80
2018-11-21T13:48:48.380Z,15.80
2018-11-21T13:51:09.639Z,14.80
2018-11-21T13:53:38.622Z,14.17
2018-11-21T13:55:42.682Z,15.33
2018-11-21T13:57:46.485Z,15.50
2018-11-21T13:59:49.987Z,15.13
2018-11-21T14:01:53.394Z,15.70
2018-11-21T14:03:56.649Z,16.23
2018-11-21T14:06:00.166Z,15.20
2018-11-21T14:08:03.405Z,18.60
2018-11-21T14:10:08.888Z,25.13
2018-11-21T14:12:13.051Z,19.20
2018-11-21T14:14:16.599Z,14.73
2018-11-21T14:16:20.079Z,18.10
2018-11-21T14:18:25.430Z,17.93
2018-11-21T14:20:29.118Z,19.00
2018-11-21T14:22:32.365Z,18.13
2018-11-21T14:24:36.741Z,17.00
2018-11-21T14:26:40.043Z,17.60
2018-11-21T14:28:44.213Z,18.23
2018-11-21T14:30:48.118Z,17.63
2018-11-21T14:32:51.400Z,16.90
2018-11-21T14:34:59.251Z,23.57
2018-11-21T14:37:02.554Z,18.77
2018-11-21T14:39:09.457Z,17.30
2018-11-21T14:41:13.440Z,17.00
2018-11-21T14:43:17.420Z,15.73
2018-11-21T14:45:20.898Z,18.67
2018-11-21T14:47:24.241Z,18.60
2018-11-21T14:49:27.922Z,20.60
2018-11-21T14:51:31.182Z,18.27
2018-11-21T14:53:34.450Z,19.43
2018-11-21T14:55:37.733Z,17.57
2018-11-21T14:57:40.974Z,17.07
2018-11-21T14:59:45.221Z,15.47
2018-11-21T15:01:48.826Z,17.40
2018-11-21T15:03:52.242Z,16.53
2018-11-21T15:05:55.503Z,17.17
2018-11-21T15:07:58.773Z,14.20
2018-11-21T15:10:02.213Z,14.77
2018-11-21T15:12:05.612Z,19.80
2018-11-21T15:14:08.903Z,20.83
2018-11-21T15:16:13.034Z,18.83
2018-11-21T15:18:18.046Z,16.90
2018-11-21T15:20:23.170Z,19.73
2018-11-21T15:22:26.416Z,19.33
2018-11-21T15:24:29.679Z,16.50
2018-11-21T15:26:32.999Z,20.20
2018-11-21T15:28:36.246Z,16.93
2018-11-21T15:30:39.498Z,15.67
2018-11-21T15:32:43.176Z,17.77
2018-11-21T15:34:46.726Z,13.27
2018-11-21T15:36:50.209Z,19.10
2018-11-21T15:38:53.619Z,15.20
2018-11-21T15:40:56.873Z,21.07
2018-11-21T15:43:00.133Z,17.33
2018-11-21T15:45:03.402Z,20.70
2018-11-21T15:47:06.706Z,16.73
2018-11-21T15:49:09.974Z,17.60
2018-11-21T15:51:14.651Z,18.77
2018-11-21T15:53:18.081Z,16.30
2018-11-21T15:55:22.951Z,15.53
2018-11-21T15:57:26.218Z,18.13
2018-11-21T15:59:29.608Z,20.83
2018-11-21T16:01:32.899Z,18.53
2018-11-21T16:03:36.306Z,19.93
2018-11-21T16:05:39.562Z,21.10
2018-11-21T16:07:43.430Z,22.53
2018-11-21T16:09:47.661Z,22.03
2018-11-21T16:11:51.107Z,18.67
2018-11-21T16:13:54.540Z,21.50
2018-11-21T16:15:58.240Z,23.10
2018-11-21T16:18:01.490Z,21.70
2018-11-21T16:20:07.770Z,18.43
2018-11-21T16:22:11.216Z,19.40
2018-11-21T16:24:15.249Z,18.20
2018-11-21T16:26:18.807Z,47.67
2018-11-21T16:28:23.669Z,26.53
2018-11-21T16:30:27.600Z,20.93
2018-11-21T16:32:30.906Z,20.67
2018-11-21T16:34:34.401Z,22.63
2018-11-21T16:36:37.877Z,21.63
2018-11-21T16:38:41.311Z,21.30
2018-11-21T16:40:46.051Z,25.33
2018-11-21T16:42:50.190Z,21.07
2018-11-21T16:44:53.891Z,21.07
2018-11-21T16:46:57.870Z,31.90
2018-11-21T16:49:01.301Z,22.13
2018-11-21T16:51:04.580Z,21.30
2018-11-21T16:53:08.928Z,21.87
2018-11-21T16:55:15.093Z,19.57
2018-11-21T16:57:18.827Z,15.83
2018-11-21T16:59:22.912Z,17.90
2018-11-21T17:01:26.552Z,15.43
2018-11-21T17:03:29.963Z,23.50
2018-11-21T17:05:33.514Z,15.20
2018-11-21T17:07:36.762Z,16.57
2018-11-21T17:09:40.966Z,17.03
2018-11-21T17:11:45.254Z,18.20
2018-11-21T17:13:48.694Z,18.97
2018-11-21T17:15:52.397Z,16.37
2018-11-21T17:17:55.944Z,15.67
2018-11-21T17:20:01.170Z,19.20
2018-11-21T17:22:04.833Z,19.87
2018-11-21T17:24:08.453Z,18.27
2018-11-21T17:26:12.272Z,16.87
2018-11-21T17:28:16.433Z,16.07
2018-11-21T17:30:21.849Z,14.77
2018-11-21T17:32:25.342Z,20.90
2018-11-21T17:34:28.602Z,15.57
2018-11-21T17:36:32.499Z,17.20
2018-11-21T17:38:36.077Z,14.60
2018-11-21T17:40:40.984Z,15.83
2018-11-21T17:42:45.323Z,18.90
2018-11-21T17:44:49.348Z,17.27
2018-11-21T17:47:07.466Z,19.83
2018-11-21T17:49:11.097Z,14.23
2018-11-21T17:51:15.423Z,15.13
2018-11-21T17:53:19.331Z,15.53
2018-11-21T17:55:25.088Z,16.83
2018-11-21T17:57:28.597Z,14.17
2018-11-21T17:59:32.044Z,12.77
2018-11-21T18:01:36.015Z,13.70
2018-11-21T18:03:39.333Z,14.63
2018-11-21T18:05:42.806Z,18.63
2018-11-21T18:07:47.426Z,14.53
2018-11-21T18:09:51.271Z,13.83
2018-11-21T18:11:55.224Z,14.23
2018-11-21T18:13:59.276Z,13.70
2018-11-21T18:16:02.558Z,11.33
2018-11-21T18:18:06.845Z,18.10
2018-11-21T18:20:11.167Z,17.80
2018-11-21T18:22:18.462Z,13.93
2018-11-21T18:24:21.854Z,14.83
2018-11-21T18:26:25.532Z,17.07
2018-11-21T18:28:29.375Z,14.07
2018-11-21T18:30:32.761Z,15.30
2018-11-21T18:32:36.080Z,13.80
2018-11-21T18:34:40.029Z,13.00
2018-11-21T18:36:43.949Z,17.13
2018-11-21T18:38:48.069Z,13.90
2018-11-21T18:40:53.985Z,29.57
2018-11-21T18:42:58.069Z,41.20
2018-11-21T18:45:01.464Z,17.93
2018-11-21T18:47:05.284Z,18.20
2018-11-21T18:49:09.277Z,25.00
2018-11-21T18:51:13.666Z,16.53
2018-11-21T18:53:17.874Z,16.00
2018-11-21T18:55:23.555Z,18.33
2018-11-21T18:58:08.870Z,16.17
2018-11-21T19:00:19.235Z,20.13
2018-11-21T19:02:22.802Z,22.73
2018-11-21T19:04:27.091Z,29.23
2018-11-21T19:06:31.001Z,19.27
2018-11-21T19:08:34.481Z,26.73
2018-11-21T19:10:38.408Z,31.03
2018-11-21T19:12:42.460Z,14.40
2018-11-21T19:14:47.131Z,18.07
2018-11-21T19:16:50.695Z,18.97
2018-11-21T19:18:54.604Z,20.63
2018-11-21T19:20:57.783Z,16.30
2018-11-21T19:23:03.168Z,15.63
2018-11-21T19:25:08.089Z,15.20
2018-11-21T19:27:12.044Z,12.63
2018-11-21T19:29:16.412Z,12.70
2018-11-21T19:31:20.146Z,14.93
2018-11-21T19:33:24.295Z,14.87
2018-11-21T19:35:28.681Z,15.30
2018-11-21T19:37:32.190Z,13.90
2018-11-21T19:39:36.187Z,12.23
2018-11-21T19:41:41.177Z,12.27
2018-11-21T19:43:44.627Z,13.40
2018-11-21T19:45:49.078Z,9.93
2018-11-21T19:47:52.515Z,13.40
2018-11-21T19:49:56.296Z,12.40
2018-11-21T19:52:00.286Z,10.77
2018-11-21T19:54:04.148Z,13.00
2018-11-21T19:56:07.790Z,13.10
2018-11-21T19:58:11.736Z,12.93
2018-11-21T20:00:22.359Z,11.63
2018-11-21T20:02:25.969Z,14.50
2018-11-21T20:04:29.960Z,10.70
2018-11-21T20:06:33.764Z,13.37
2018-11-21T20:08:37.781Z,13.53
2018-11-21T20:10:41.255Z,14.80
2018-11-21T20:12:44.721Z,13.60
2018-11-21T20:14:50.721Z,15.20
2018-11-21T20:16:54.022Z,14.57
2018-11-21T20:18:58.599Z,15.40
2018-11-21T20:21:02.574Z,14.90
2018-11-21T20:23:07.454Z,16.20
2018-11-21T20:25:12.866Z,14.47
2018-11-21T20:27:16.877Z,16.67
2018-11-21T20:29:20.990Z,13.63
2018-11-21T20:31:24.803Z,13.47
2018-11-21T20:33:28.859Z,28.93
2018-11-21T20:35:32.866Z,38.77
2018-11-21T20:37:37.535Z,15.73
2018-11-21T20:39:46.815Z,20.13
2018-11-21T20:41:44.379Z,15.97
2018-11-21T20:43:48.808Z,13.53
2018-11-21T20:45:52.163Z,17.10
2018-11-21T20:47:56.333Z,18.47
2018-11-21T20:50:00.223Z,17.63
2018-11-21T20:52:03.888Z,17.47
2018-11-21T20:54:07.896Z,17.33
2018-11-21T20:56:11.909Z,20.67
2018-11-21T20:58:15.483Z,23.33
2018-11-21T21:00:23.896Z,16.30
2018-11-21T21:02:28.044Z,16.90
2018-11-21T21:04:31.552Z,19.70
2018-11-21T21:06:35.078Z,15.30
2018-11-21T21:08:38.737Z,18.60
2018-11-21T21:10:46.710Z,14.70
2018-11-21T21:12:50.321Z,14.30
2018-11-21T21:14:54.682Z,20.63
2018-11-21T21:16:58.501Z,21.27
2018-11-21T21:19:01.863Z,18.73
2018-11-21T21:21:05.383Z,22.80
2018-11-21T21:23:08.668Z,18.43
2018-11-21T21:25:15.742Z,19.83
2018-11-21T21:27:19.656Z,19.87
2018-11-21T21:29:23.056Z,16.37
2018-11-21T21:31:26.407Z,16.13
2018-11-21T21:33:29.669Z,15.87
2018-11-21T21:35:33.698Z,12.87
2018-11-21T21:37:37.845Z,16.17
2018-11-21T21:39:41.119Z,20.00
2018-11-21T21:41:44.388Z,21.57
2018-11-21T21:43:50.226Z,21.90
2018-11-21T21:45:53.572Z,19.57
2018-11-21T21:47:57.001Z,20.63
2018-11-21T21:50:04.911Z,19.80
2018-11-21T21:52:08.369Z,17.23
2018-11-21T21:54:11.616Z,19.23
2018-11-21T21:56:16.518Z,20.43
2018-11-21T21:58:23.185Z,19.27
2018-11-21T22:00:27.483Z,19.30
2018-11-21T22:02:30.774Z,16.13
2018-11-21T22:04:34.083Z,20.37
2018-11-21T22:06:37.299Z,24.23
2018-11-21T22:08:40.627Z,23.50
2018-11-21T22:10:43.891Z,17.97
2018-11-21T22:12:47.380Z,16.90
2018-11-21T22:14:52.134Z,24.27
2018-11-21T22:16:55.601Z,32.47
2018-11-21T22:18:58.945Z,29.63
2018-11-21T22:21:02.236Z,82.50
2018-11-21T22:23:05.697Z,51.80
2018-11-21T22:25:10.872Z,21.10
2018-11-21T22:27:14.454Z,23.57
2018-11-21T22:29:17.942Z,19.97
2018-11-21T22:31:21.436Z,25.20
2018-11-21T22:33:24.864Z,27.03
2018-11-21T22:35:29.946Z,22.73
2018-11-21T22:37:37.877Z,20.90
2018-11-21T22:39:36.759Z,26.40
2018-11-21T22:41:40.006Z,22.60
2018-11-21T22:43:43.315Z,22.53
2018-11-21T22:45:47.724Z,26.43
2018-11-21T22:47:51.483Z,29.73
2018-11-21T22:49:55.152Z,26.23
2018-11-21T22:51:58.868Z,22.67
2018-11-21T22:54:02.174Z,23.23
2018-11-21T22:56:05.516Z,21.63
2018-11-21T22:58:09.209Z,24.50
2018-11-21T23:00:18.238Z,21.67
2018-11-21T23:02:21.716Z,26.67
2018-11-21T23:04:26.289Z,20.93
2018-11-21T23:06:29.743Z,26.20
2018-11-21T23:08:32.994Z,23.00
2018-11-21T23:10:36.268Z,27.57
2018-11-21T23:12:40.231Z,26.77
2018-11-21T23:14:43.499Z,24.20
2018-11-21T23:16:46.760Z,26.73
2018-11-21T23:18:50.790Z,25.60
2018-11-21T23:20:54.382Z,24.60
2018-11-21T23:22:58.194Z,24.93
2018-11-21T23:25:01.450Z,26.07
2018-11-21T23:27:06.755Z,23.77
2018-11-21T23:29:10.102Z,22.77
2018-11-21T23:31:13.415Z,19.70
2018-11-21T23:33:16.618Z,26.83
2018-11-21T23:35:21.441Z,29.93
2018-11-21T23:37:24.750Z,23.33
2018-11-21T23:39:28.124Z,28.07
2018-11-21T23:41:31.382Z,24.43
2018-11-21T23:43:34.664Z,30.13
2018-11-21T23:45:37.953Z,30.03
2018-11-21T23:47:41.401Z,30.53
2018-11-21T23:49:44.634Z,29.23
2018-11-21T23:51:47.994Z,35.23
2018-11-21T23:53:52.170Z,33.50
2018-11-21T23:55:55.602Z,31.27
2018-11-21T23:57:58.888Z,34.57
